Weather at Licenciado Manuel Crescencio Rejon Int Airport

Public forecast

Using degrees Celsius for public forecast. Weather courtesy of forecast.io.

Current aviation weather report (METAR) for Licenciado Manuel Crescencio Rejon Int Airport

Retrieved 2021/04/19 04:45 UTC (26 minutes ago):

MMMD 190445Z 14004KT 7SM FEW015 SCT300 23/21 A2991 RMK 8/508

Aviation forecast (TAF) for Licenciado Manuel Crescencio Rejon Int Airport

Retrieved 2021-04-19 00:28 UTC (5 hours ago):

TAF MMMD 182322Z 1900/2006 30010KT P6SM BKN015CB BKN300 TX38/1921Z TN27/1910Z BECMG 1902/1903 BKN020 TEMPO 1904/1906 6SM -RA FM191000 17005KT 6SM BR HZ BKN015 PROB40 1911/1914 6SM -RA FM191800 24010KT 6SM HZ BKN015 TEMPO 1921/2001 4SM TSRA BKN015CB FM200200 06008KT 6SM HZ BKN015